sensor_id;sensor_type;location;lat;lon;timestamp;P1;durP1;ratioP1;P2;durP2;ratioP2
42168;SDS011;27838;43.858;25.974;2024-03-08T00:00:55;45.42;;;23.60;;
42168;SDS011;27838;43.858;25.974;2024-03-08T00:03:22;42.60;;;21.92;;
42168;SDS011;27838;43.858;25.974;2024-03-08T00:05:49;43.83;;;23.60;;
42168;SDS011;27838;43.858;25.974;2024-03-08T00:08:15;39.97;;;21.88;;
42168;SDS011;27838;43.858;25.974;2024-03-08T00:10:42;45.58;;;23.48;;
42168;SDS011;27838;43.858;25.974;2024-03-08T00:13:09;42.85;;;23.27;;
42168;SDS011;27838;43.858;25.974;2024-03-08T00:15:35;47.92;;;23.15;;
42168;SDS011;27838;43.858;25.974;2024-03-08T00:18:02;55.97;;;22.42;;
42168;SDS011;27838;43.858;25.974;2024-03-08T00:20:28;46.83;;;22.45;;
42168;SDS011;27838;43.858;25.974;2024-03-08T00:22:55;45.92;;;22.20;;
42168;SDS011;27838;43.858;25.974;2024-03-08T00:25:22;42.63;;;22.58;;
42168;SDS011;27838;43.858;25.974;2024-03-08T00:27:49;39.58;;;23.55;;
42168;SDS011;27838;43.858;25.974;2024-03-08T00:30:16;49.22;;;23.20;;
42168;SDS011;27838;43.858;25.974;2024-03-08T00:32:43;48.50;;;22.90;;
42168;SDS011;27838;43.858;25.974;2024-03-08T00:35:09;41.45;;;23.15;;
42168;SDS011;27838;43.858;25.974;2024-03-08T00:37:37;49.75;;;24.17;;
42168;SDS011;27838;43.858;25.974;2024-03-08T00:40:04;57.10;;;24.25;;
42168;SDS011;27838;43.858;25.974;2024-03-08T00:42:32;50.35;;;24.17;;
42168;SDS011;27838;43.858;25.974;2024-03-08T00:44:59;49.15;;;23.50;;
42168;SDS011;27838;43.858;25.974;2024-03-08T00:47:25;47.97;;;23.38;;
42168;SDS011;27838;43.858;25.974;2024-03-08T00:49:52;46.08;;;23.92;;
42168;SDS011;27838;43.858;25.974;2024-03-08T00:52:21;46.58;;;24.10;;
42168;SDS011;27838;43.858;25.974;2024-03-08T00:54:49;46.60;;;24.40;;
42168;SDS011;27838;43.858;25.974;2024-03-08T00:57:15;43.05;;;23.17;;
42168;SDS011;27838;43.858;25.974;2024-03-08T00:59:42;51.58;;;23.90;;
42168;SDS011;27838;43.858;25.974;2024-03-08T01:02:09;45.35;;;24.65;;
42168;SDS011;27838;43.858;25.974;2024-03-08T01:04:36;56.33;;;24.95;;
42168;SDS011;27838;43.858;25.974;2024-03-08T01:07:02;48.95;;;25.23;;
42168;SDS011;27838;43.858;25.974;2024-03-08T01:09:29;50.38;;;25.23;;
42168;SDS011;27838;43.858;25.974;2024-03-08T01:11:56;55.45;;;24.58;;
42168;SDS011;27838;43.858;25.974;2024-03-08T01:14:22;49.65;;;24.92;;
42168;SDS011;27838;43.858;25.974;2024-03-08T01:16:51;53.40;;;24.10;;
42168;SDS011;27838;43.858;25.974;2024-03-08T01:19:17;50.70;;;24.05;;
42168;SDS011;27838;43.858;25.974;2024-03-08T01:21:44;47.30;;;25.83;;
42168;SDS011;27838;43.858;25.974;2024-03-08T01:24:11;49.45;;;25.13;;
42168;SDS011;27838;43.858;25.974;2024-03-08T01:26:38;50.70;;;25.27;;
42168;SDS011;27838;43.858;25.974;2024-03-08T01:29:04;53.83;;;25.52;;
42168;SDS011;27838;43.858;25.974;2024-03-08T01:31:31;53.03;;;25.48;;
42168;SDS011;27838;43.858;25.974;2024-03-08T01:33:59;47.42;;;24.63;;
42168;SDS011;27838;43.858;25.974;2024-03-08T01:36:25;51.83;;;24.80;;
42168;SDS011;27838;43.858;25.974;2024-03-08T01:38:52;50.83;;;24.60;;
42168;SDS011;27838;43.858;25.974;2024-03-08T01:41:19;53.97;;;25.83;;
42168;SDS011;27838;43.858;25.974;2024-03-08T01:43:45;46.55;;;24.45;;
42168;SDS011;27838;43.858;25.974;2024-03-08T01:46:14;48.08;;;24.45;;
42168;SDS011;27838;43.858;25.974;2024-03-08T01:48:47;46.22;;;24.15;;
42168;SDS011;27838;43.858;25.974;2024-03-08T01:51:14;44.33;;;24.02;;
42168;SDS011;27838;43.858;25.974;2024-03-08T01:53:41;46.85;;;24.25;;
42168;SDS011;27838;43.858;25.974;2024-03-08T01:56:11;46.85;;;24.98;;
42168;SDS011;27838;43.858;25.974;2024-03-08T01:58:39;38.35;;;23.00;;
42168;SDS011;27838;43.858;25.974;2024-03-08T02:01:08;46.10;;;25.60;;
42168;SDS011;27838;43.858;25.974;2024-03-08T02:03:36;49.55;;;24.00;;
42168;SDS011;27838;43.858;25.974;2024-03-08T02:06:03;48.58;;;25.42;;
42168;SDS011;27838;43.858;25.974;2024-03-08T02:08:33;49.95;;;24.38;;
42168;SDS011;27838;43.858;25.974;2024-03-08T02:10:59;47.47;;;25.77;;
42168;SDS011;27838;43.858;25.974;2024-03-08T02:13:27;46.08;;;24.65;;
42168;SDS011;27838;43.858;25.974;2024-03-08T02:15:57;45.80;;;24.95;;
42168;SDS011;27838;43.858;25.974;2024-03-08T02:18:25;45.42;;;25.52;;
42168;SDS011;27838;43.858;25.974;2024-03-08T02:20:53;48.75;;;24.23;;
42168;SDS011;27838;43.858;25.974;2024-03-08T02:23:24;48.25;;;25.25;;
42168;SDS011;27838;43.858;25.974;2024-03-08T02:25:52;49.15;;;24.08;;
42168;SDS011;27838;43.858;25.974;2024-03-08T02:28:20;57.53;;;27.70;;
42168;SDS011;27838;43.858;25.974;2024-03-08T02:30:47;53.65;;;26.65;;
42168;SDS011;27838;43.858;25.974;2024-03-08T02:33:14;52.22;;;25.75;;
42168;SDS011;27838;43.858;25.974;2024-03-08T02:35:43;55.40;;;25.88;;
42168;SDS011;27838;43.858;25.974;2024-03-08T02:38:16;56.40;;;25.95;;
42168;SDS011;27838;43.858;25.974;2024-03-08T02:40:48;45.78;;;25.33;;
42168;SDS011;27838;43.858;25.974;2024-03-08T02:43:16;50.42;;;25.45;;
42168;SDS011;27838;43.858;25.974;2024-03-08T02:45:44;45.55;;;25.05;;
42168;SDS011;27838;43.858;25.974;2024-03-08T02:48:11;54.88;;;26.10;;
42168;SDS011;27838;43.858;25.974;2024-03-08T02:50:39;55.70;;;27.02;;
42168;SDS011;27838;43.858;25.974;2024-03-08T02:53:07;54.13;;;25.65;;
42168;SDS011;27838;43.858;25.974;2024-03-08T02:55:34;49.10;;;25.70;;
42168;SDS011;27838;43.858;25.974;2024-03-08T02:58:02;49.15;;;24.95;;
42168;SDS011;27838;43.858;25.974;2024-03-08T03:00:29;57.10;;;26.20;;
42168;SDS011;27838;43.858;25.974;2024-03-08T03:02:57;41.65;;;23.95;;
42168;SDS011;27838;43.858;25.974;2024-03-08T03:05:24;50.30;;;25.42;;
42168;SDS011;27838;43.858;25.974;2024-03-08T03:07:51;46.30;;;24.38;;
42168;SDS011;27838;43.858;25.974;2024-03-08T03:10:18;50.20;;;27.02;;
42168;SDS011;27838;43.858;25.974;2024-03-08T03:12:46;52.85;;;26.33;;
42168;SDS011;27838;43.858;25.974;2024-03-08T03:15:14;46.22;;;24.60;;
42168;SDS011;27838;43.858;25.974;2024-03-08T03:17:45;45.17;;;25.73;;
42168;SDS011;27838;43.858;25.974;2024-03-08T03:20:16;47.35;;;26.20;;
42168;SDS011;27838;43.858;25.974;2024-03-08T03:22:48;51.50;;;24.70;;
42168;SDS011;27838;43.858;25.974;2024-03-08T03:25:18;54.55;;;26.73;;
42168;SDS011;27838;43.858;25.974;2024-03-08T03:27:50;47.35;;;26.10;;
42168;SDS011;27838;43.858;25.974;2024-03-08T03:30:17;53.72;;;26.65;;
42168;SDS011;27838;43.858;25.974;2024-03-08T03:32:51;52.67;;;25.98;;
42168;SDS011;27838;43.858;25.974;2024-03-08T03:35:19;47.55;;;25.30;;
42168;SDS011;27838;43.858;25.974;2024-03-08T03:37:47;52.15;;;25.73;;
42168;SDS011;27838;43.858;25.974;2024-03-08T03:40:29;49.78;;;26.27;;
42168;SDS011;27838;43.858;25.974;2024-03-08T03:42:56;53.05;;;25.88;;
42168;SDS011;27838;43.858;25.974;2024-03-08T03:45:23;48.67;;;27.60;;
42168;SDS011;27838;43.858;25.974;2024-03-08T03:47:50;52.50;;;28.00;;
42168;SDS011;27838;43.858;25.974;2024-03-08T03:50:20;51.33;;;27.45;;
42168;SDS011;27838;43.858;25.974;2024-03-08T03:52:48;56.70;;;28.65;;
42168;SDS011;27838;43.858;25.974;2024-03-08T03:55:15;49.67;;;26.45;;
42168;SDS011;27838;43.858;25.974;2024-03-08T03:57:42;47.15;;;26.08;;
42168;SDS011;27838;43.858;25.974;2024-03-08T04:00:10;60.22;;;26.42;;
42168;SDS011;27838;43.858;25.974;2024-03-08T04:02:38;46.70;;;26.30;;
42168;SDS011;27838;43.858;25.974;2024-03-08T04:05:05;51.33;;;27.30;;
42168;SDS011;27838;43.858;25.974;2024-03-08T04:07:34;56.88;;;26.05;;
42168;SDS011;27838;43.858;25.974;2024-03-08T04:10:05;48.63;;;25.83;;
42168;SDS011;27838;43.858;25.974;2024-03-08T04:12:36;47.40;;;24.98;;
42168;SDS011;27838;43.858;25.974;2024-03-08T04:15:02;62.85;;;27.23;;
42168;SDS011;27838;43.858;25.974;2024-03-08T04:17:32;55.17;;;28.48;;
42168;SDS011;27838;43.858;25.974;2024-03-08T04:20:00;54.63;;;27.40;;
42168;SDS011;27838;43.858;25.974;2024-03-08T04:22:30;56.50;;;27.75;;
42168;SDS011;27838;43.858;25.974;2024-03-08T04:24:57;56.67;;;28.92;;
42168;SDS011;27838;43.858;25.974;2024-03-08T04:27:24;51.63;;;28.50;;
42168;SDS011;27838;43.858;25.974;2024-03-08T04:29:51;52.28;;;26.67;;
42168;SDS011;27838;43.858;25.974;2024-03-08T04:32:17;54.05;;;27.63;;
42168;SDS011;27838;43.858;25.974;2024-03-08T04:34:44;54.83;;;27.38;;
42168;SDS011;27838;43.858;25.974;2024-03-08T04:37:10;52.95;;;26.90;;
42168;SDS011;27838;43.858;25.974;2024-03-08T04:39:39;52.55;;;27.02;;
42168;SDS011;27838;43.858;25.974;2024-03-08T04:42:05;54.65;;;26.15;;
42168;SDS011;27838;43.858;25.974;2024-03-08T04:44:35;51.17;;;26.35;;
42168;SDS011;27838;43.858;25.974;2024-03-08T04:47:04;53.50;;;25.30;;
42168;SDS011;27838;43.858;25.974;2024-03-08T04:49:32;56.08;;;26.20;;
42168;SDS011;27838;43.858;25.974;2024-03-08T04:52:03;40.17;;;25.23;;
42168;SDS011;27838;43.858;25.974;2024-03-08T04:54:31;47.55;;;24.98;;
42168;SDS011;27838;43.858;25.974;2024-03-08T04:56:59;46.67;;;25.77;;
42168;SDS011;27838;43.858;25.974;2024-03-08T04:59:26;58.25;;;29.42;;
42168;SDS011;27838;43.858;25.974;2024-03-08T05:01:53;49.88;;;26.52;;
42168;SDS011;27838;43.858;25.974;2024-03-08T05:04:19;50.63;;;24.98;;
42168;SDS011;27838;43.858;25.974;2024-03-08T05:06:46;47.03;;;26.08;;
42168;SDS011;27838;43.858;25.974;2024-03-08T05:09:13;46.50;;;23.15;;
42168;SDS011;27838;43.858;25.974;2024-03-08T05:11:41;48.67;;;23.90;;
42168;SDS011;27838;43.858;25.974;2024-03-08T05:14:08;55.47;;;25.88;;
42168;SDS011;27838;43.858;25.974;2024-03-08T05:16:35;47.00;;;24.25;;
42168;SDS011;27838;43.858;25.974;2024-03-08T05:19:02;46.28;;;25.10;;
42168;SDS011;27838;43.858;25.974;2024-03-08T05:21:29;47.40;;;23.27;;
42168;SDS011;27838;43.858;25.974;2024-03-08T05:23:55;50.42;;;25.35;;
42168;SDS011;27838;43.858;25.974;2024-03-08T05:26:22;54.03;;;24.65;;
42168;SDS011;27838;43.858;25.974;2024-03-08T05:28:48;50.17;;;25.60;;
42168;SDS011;27838;43.858;25.974;2024-03-08T05:31:19;48.25;;;25.65;;
42168;SDS011;27838;43.858;25.974;2024-03-08T05:33:48;44.75;;;24.45;;
42168;SDS011;27838;43.858;25.974;2024-03-08T05:36:15;47.50;;;23.60;;
42168;SDS011;27838;43.858;25.974;2024-03-08T05:38:43;57.38;;;28.85;;
42168;SDS011;27838;43.858;25.974;2024-03-08T05:41:10;50.95;;;25.60;;
42168;SDS011;27838;43.858;25.974;2024-03-08T05:43:37;47.80;;;25.10;;
42168;SDS011;27838;43.858;25.974;2024-03-08T05:46:04;51.10;;;25.92;;
42168;SDS011;27838;43.858;25.974;2024-03-08T05:48:31;50.97;;;26.52;;
42168;SDS011;27838;43.858;25.974;2024-03-08T05:50:58;52.72;;;27.27;;
42168;SDS011;27838;43.858;25.974;2024-03-08T05:53:26;54.65;;;26.30;;
42168;SDS011;27838;43.858;25.974;2024-03-08T05:55:56;49.03;;;24.50;;
42168;SDS011;27838;43.858;25.974;2024-03-08T05:58:23;50.28;;;24.70;;
42168;SDS011;27838;43.858;25.974;2024-03-08T06:00:50;56.22;;;26.52;;
42168;SDS011;27838;43.858;25.974;2024-03-08T06:03:16;48.25;;;24.58;;
42168;SDS011;27838;43.858;25.974;2024-03-08T06:05:46;52.40;;;25.02;;
42168;SDS011;27838;43.858;25.974;2024-03-08T06:08:13;51.90;;;26.10;;
42168;SDS011;27838;43.858;25.974;2024-03-08T06:10:40;50.70;;;26.00;;
42168;SDS011;27838;43.858;25.974;2024-03-08T06:13:07;49.83;;;23.55;;
42168;SDS011;27838;43.858;25.974;2024-03-08T06:15:34;49.08;;;25.60;;
42168;SDS011;27838;43.858;25.974;2024-03-08T06:18:01;47.40;;;25.27;;
42168;SDS011;27838;43.858;25.974;2024-03-08T06:20:27;49.72;;;25.15;;
42168;SDS011;27838;43.858;25.974;2024-03-08T06:22:54;50.97;;;24.98;;
42168;SDS011;27838;43.858;25.974;2024-03-08T06:25:21;49.67;;;23.65;;
42168;SDS011;27838;43.858;25.974;2024-03-08T06:27:48;45.88;;;24.17;;
42168;SDS011;27838;43.858;25.974;2024-03-08T06:30:14;48.22;;;25.77;;
42168;SDS011;27838;43.858;25.974;2024-03-08T06:32:41;52.85;;;25.48;;
42168;SDS011;27838;43.858;25.974;2024-03-08T06:35:08;48.65;;;23.98;;
42168;SDS011;27838;43.858;25.974;2024-03-08T06:37:35;47.90;;;25.13;;
42168;SDS011;27838;43.858;25.974;2024-03-08T06:40:02;49.38;;;26.92;;
42168;SDS011;27838;43.858;25.974;2024-03-08T06:42:29;49.58;;;24.85;;
42168;SDS011;27838;43.858;25.974;2024-03-08T06:44:58;65.78;;;33.63;;
42168;SDS011;27838;43.858;25.974;2024-03-08T06:47:29;52.78;;;26.00;;
42168;SDS011;27838;43.858;25.974;2024-03-08T06:49:56;48.60;;;24.88;;
42168;SDS011;27838;43.858;25.974;2024-03-08T06:52:23;55.80;;;26.08;;
42168;SDS011;27838;43.858;25.974;2024-03-08T06:54:50;51.70;;;24.27;;
42168;SDS011;27838;43.858;25.974;2024-03-08T06:57:17;50.13;;;24.67;;
42168;SDS011;27838;43.858;25.974;2024-03-08T06:59:47;44.67;;;23.17;;
42168;SDS011;27838;43.858;25.974;2024-03-08T07:02:14;48.15;;;23.25;;
42168;SDS011;27838;43.858;25.974;2024-03-08T07:04:41;47.80;;;24.73;;
42168;SDS011;27838;43.858;25.974;2024-03-08T07:07:07;52.30;;;24.73;;
42168;SDS011;27838;43.858;25.974;2024-03-08T07:09:37;45.50;;;23.80;;
42168;SDS011;27838;43.858;25.974;2024-03-08T07:12:06;51.28;;;25.20;;
42168;SDS011;27838;43.858;25.974;2024-03-08T07:14:33;44.33;;;23.13;;
42168;SDS011;27838;43.858;25.974;2024-03-08T07:16:59;42.17;;;21.92;;
42168;SDS011;27838;43.858;25.974;2024-03-08T07:19:26;49.60;;;24.63;;
42168;SDS011;27838;43.858;25.974;2024-03-08T07:21:52;43.10;;;23.90;;
42168;SDS011;27838;43.858;25.974;2024-03-08T07:24:20;44.97;;;23.40;;
42168;SDS011;27838;43.858;25.974;2024-03-08T07:27:05;45.92;;;23.20;;
42168;SDS011;27838;43.858;25.974;2024-03-08T07:29:32;50.53;;;24.52;;
42168;SDS011;27838;43.858;25.974;2024-03-08T07:31:59;49.67;;;25.40;;
42168;SDS011;27838;43.858;25.974;2024-03-08T07:34:43;45.20;;;23.65;;
42168;SDS011;27838;43.858;25.974;2024-03-08T07:37:09;52.97;;;25.70;;
42168;SDS011;27838;43.858;25.974;2024-03-08T07:39:39;49.72;;;25.77;;
42168;SDS011;27838;43.858;25.974;2024-03-08T07:42:06;49.22;;;24.13;;
42168;SDS011;27838;43.858;25.974;2024-03-08T07:44:32;47.85;;;23.08;;
42168;SDS011;27838;43.858;25.974;2024-03-08T07:46:59;42.15;;;22.95;;
42168;SDS011;27838;43.858;25.974;2024-03-08T07:49:25;49.08;;;22.95;;
42168;SDS011;27838;43.858;25.974;2024-03-08T07:51:52;43.45;;;21.80;;
42168;SDS011;27838;43.858;25.974;2024-03-08T07:54:18;44.85;;;22.60;;
42168;SDS011;27838;43.858;25.974;2024-03-08T07:56:45;48.50;;;22.83;;
42168;SDS011;27838;43.858;25.974;2024-03-08T07:59:12;51.45;;;24.08;;
42168;SDS011;27838;43.858;25.974;2024-03-08T08:01:38;47.95;;;23.67;;
42168;SDS011;27838;43.858;25.974;2024-03-08T08:04:05;45.40;;;22.52;;
42168;SDS011;27838;43.858;25.974;2024-03-08T08:06:31;43.58;;;22.27;;
42168;SDS011;27838;43.858;25.974;2024-03-08T08:08:58;43.28;;;22.70;;
42168;SDS011;27838;43.858;25.974;2024-03-08T08:11:28;43.95;;;22.13;;
42168;SDS011;27838;43.858;25.974;2024-03-08T08:13:56;42.38;;;21.45;;
42168;SDS011;27838;43.858;25.974;2024-03-08T08:16:23;44.63;;;20.60;;
42168;SDS011;27838;43.858;25.974;2024-03-08T08:18:50;41.00;;;21.58;;
42168;SDS011;27838;43.858;25.974;2024-03-08T08:21:17;52.13;;;22.27;;
42168;SDS011;27838;43.858;25.974;2024-03-08T08:23:44;41.67;;;22.23;;
42168;SDS011;27838;43.858;25.974;2024-03-08T08:26:11;42.10;;;21.58;;
42168;SDS011;27838;43.858;25.974;2024-03-08T08:28:37;57.92;;;23.83;;
42168;SDS011;27838;43.858;25.974;2024-03-08T08:31:05;44.78;;;21.95;;
42168;SDS011;27838;43.858;25.974;2024-03-08T08:33:33;45.22;;;23.60;;
42168;SDS011;27838;43.858;25.974;2024-03-08T08:36:00;50.05;;;22.08;;
42168;SDS011;27838;43.858;25.974;2024-03-08T08:38:27;44.42;;;21.27;;
42168;SDS011;27838;43.858;25.974;2024-03-08T08:40:53;49.80;;;23.48;;
42168;SDS011;27838;43.858;25.974;2024-03-08T08:43:21;66.63;;;25.55;;
42168;SDS011;27838;43.858;25.974;2024-03-08T08:45:49;50.08;;;22.60;;
42168;SDS011;27838;43.858;25.974;2024-03-08T08:48:19;57.72;;;22.92;;
42168;SDS011;27838;43.858;25.974;2024-03-08T08:50:46;49.92;;;24.85;;
42168;SDS011;27838;43.858;25.974;2024-03-08T08:53:12;47.65;;;23.55;;
42168;SDS011;27838;43.858;25.974;2024-03-08T08:55:40;54.30;;;24.25;;
42168;SDS011;27838;43.858;25.974;2024-03-08T08:58:07;59.38;;;24.08;;
42168;SDS011;27838;43.858;25.974;2024-03-08T09:00:33;69.70;;;25.83;;
42168;SDS011;27838;43.858;25.974;2024-03-08T09:03:00;47.28;;;23.05;;
42168;SDS011;27838;43.858;25.974;2024-03-08T09:05:27;51.47;;;23.75;;
42168;SDS011;27838;43.858;25.974;2024-03-08T09:07:54;45.97;;;21.25;;
42168;SDS011;27838;43.858;25.974;2024-03-08T09:10:21;47.53;;;23.25;;
42168;SDS011;27838;43.858;25.974;2024-03-08T09:12:48;47.72;;;21.75;;
42168;SDS011;27838;43.858;25.974;2024-03-08T09:15:15;47.35;;;21.10;;
42168;SDS011;27838;43.858;25.974;2024-03-08T09:17:42;39.97;;;20.42;;
42168;SDS011;27838;43.858;25.974;2024-03-08T09:20:10;40.58;;;21.90;;
42168;SDS011;27838;43.858;25.974;2024-03-08T09:22:39;52.63;;;22.65;;
42168;SDS011;27838;43.858;25.974;2024-03-08T09:25:12;40.28;;;21.67;;
42168;SDS011;27838;43.858;25.974;2024-03-08T09:27:39;58.45;;;22.65;;
42168;SDS011;27838;43.858;25.974;2024-03-08T09:30:06;44.90;;;20.90;;
42168;SDS011;27838;43.858;25.974;2024-03-08T09:32:33;46.83;;;22.70;;
42168;SDS011;27838;43.858;25.974;2024-03-08T09:35:00;39.80;;;22.02;;
42168;SDS011;27838;43.858;25.974;2024-03-08T09:37:27;38.10;;;20.52;;
42168;SDS011;27838;43.858;25.974;2024-03-08T09:39:53;51.90;;;21.73;;
42168;SDS011;27838;43.858;25.974;2024-03-08T09:42:20;48.83;;;21.98;;
42168;SDS011;27838;43.858;25.974;2024-03-08T09:44:46;43.53;;;21.45;;
42168;SDS011;27838;43.858;25.974;2024-03-08T09:47:14;37.15;;;20.25;;
42168;SDS011;27838;43.858;25.974;2024-03-08T09:49:41;44.60;;;21.90;;
42168;SDS011;27838;43.858;25.974;2024-03-08T09:52:08;35.58;;;20.75;;
42168;SDS011;27838;43.858;25.974;2024-03-08T09:54:35;43.60;;;22.08;;
42168;SDS011;27838;43.858;25.974;2024-03-08T09:57:03;38.38;;;20.65;;
42168;SDS011;27838;43.858;25.974;2024-03-08T09:59:30;47.15;;;22.00;;
42168;SDS011;27838;43.858;25.974;2024-03-08T10:02:16;42.75;;;20.67;;
42168;SDS011;27838;43.858;25.974;2024-03-08T10:04:43;43.28;;;21.50;;
42168;SDS011;27838;43.858;25.974;2024-03-08T10:07:12;43.30;;;21.17;;
42168;SDS011;27838;43.858;25.974;2024-03-08T10:09:39;39.85;;;21.63;;
42168;SDS011;27838;43.858;25.974;2024-03-08T10:12:07;41.28;;;21.40;;
42168;SDS011;27838;43.858;25.974;2024-03-08T10:14:38;49.10;;;20.90;;
42168;SDS011;27838;43.858;25.974;2024-03-08T10:17:05;41.17;;;21.90;;
42168;SDS011;27838;43.858;25.974;2024-03-08T10:19:32;55.03;;;22.38;;
42168;SDS011;27838;43.858;25.974;2024-03-08T10:21:59;40.88;;;21.90;;
42168;SDS011;27838;43.858;25.974;2024-03-08T10:24:26;51.38;;;22.02;;
42168;SDS011;27838;43.858;25.974;2024-03-08T10:26:55;42.80;;;20.88;;
42168;SDS011;27838;43.858;25.974;2024-03-08T10:31:51;43.10;;;21.88;;
42168;SDS011;27838;43.858;25.974;2024-03-08T10:34:18;59.30;;;22.40;;
42168;SDS011;27838;43.858;25.974;2024-03-08T10:36:44;50.80;;;23.88;;
42168;SDS011;27838;43.858;25.974;2024-03-08T10:39:24;45.97;;;22.80;;
42168;SDS011;27838;43.858;25.974;2024-03-08T10:41:58;49.28;;;23.02;;
42168;SDS011;27838;43.858;25.974;2024-03-08T10:47:01;57.92;;;24.23;;
42168;SDS011;27838;43.858;25.974;2024-03-08T10:52:38;51.20;;;23.98;;
42168;SDS011;27838;43.858;25.974;2024-03-08T10:55:05;48.13;;;22.75;;
42168;SDS011;27838;43.858;25.974;2024-03-08T10:57:38;39.72;;;22.30;;
42168;SDS011;27838;43.858;25.974;2024-03-08T11:00:06;40.17;;;22.25;;
42168;SDS011;27838;43.858;25.974;2024-03-08T11:02:36;41.85;;;21.20;;
42168;SDS011;27838;43.858;25.974;2024-03-08T11:05:03;45.20;;;22.65;;
42168;SDS011;27838;43.858;25.974;2024-03-08T11:07:34;58.38;;;24.33;;
42168;SDS011;27838;43.858;25.974;2024-03-08T11:10:04;45.05;;;22.33;;
42168;SDS011;27838;43.858;25.974;2024-03-08T11:12:37;47.67;;;21.70;;
42168;SDS011;27838;43.858;25.974;2024-03-08T11:15:10;43.00;;;22.20;;
42168;SDS011;27838;43.858;25.974;2024-03-08T11:20:11;50.50;;;24.13;;
42168;SDS011;27838;43.858;25.974;2024-03-08T11:22:47;43.92;;;22.13;;
42168;SDS011;27838;43.858;25.974;2024-03-08T11:25:32;38.30;;;22.63;;
42168;SDS011;27838;43.858;25.974;2024-03-08T11:28:11;59.65;;;23.00;;
42168;SDS011;27838;43.858;25.974;2024-03-08T11:30:45;44.88;;;20.95;;
42168;SDS011;27838;43.858;25.974;2024-03-08T11:33:16;47.50;;;23.42;;
42168;SDS011;27838;43.858;25.974;2024-03-08T11:35:43;52.08;;;22.75;;
42168;SDS011;27838;43.858;25.974;2024-03-08T11:38:11;49.25;;;22.60;;
42168;SDS011;27838;43.858;25.974;2024-03-08T11:40:38;43.28;;;21.40;;
42168;SDS011;27838;43.858;25.974;2024-03-08T11:43:05;41.70;;;21.40;;
42168;SDS011;27838;43.858;25.974;2024-03-08T11:45:34;47.40;;;22.70;;
42168;SDS011;27838;43.858;25.974;2024-03-08T11:48:03;43.15;;;22.27;;
42168;SDS011;27838;43.858;25.974;2024-03-08T11:50:30;47.85;;;23.58;;
42168;SDS011;27838;43.858;25.974;2024-03-08T11:53:03;54.60;;;25.00;;
42168;SDS011;27838;43.858;25.974;2024-03-08T11:55:31;38.35;;;22.40;;
42168;SDS011;27838;43.858;25.974;2024-03-08T11:58:04;36.92;;;22.20;;
42168;SDS011;27838;43.858;25.974;2024-03-08T12:00:33;38.25;;;21.58;;
42168;SDS011;27838;43.858;25.974;2024-03-08T12:03:03;51.65;;;22.52;;
42168;SDS011;27838;43.858;25.974;2024-03-08T12:08:04;40.85;;;20.20;;
42168;SDS011;27838;43.858;25.974;2024-03-08T12:10:32;45.83;;;22.58;;
42168;SDS011;27838;43.858;25.974;2024-03-08T12:13:00;49.15;;;22.90;;
42168;SDS011;27838;43.858;25.974;2024-03-08T12:15:28;42.70;;;21.92;;
42168;SDS011;27838;43.858;25.974;2024-03-08T12:17:58;46.63;;;21.63;;
42168;SDS011;27838;43.858;25.974;2024-03-08T12:20:26;48.25;;;21.85;;
42168;SDS011;27838;43.858;25.974;2024-03-08T12:22:55;49.67;;;22.25;;
42168;SDS011;27838;43.858;25.974;2024-03-08T12:25:22;47.15;;;21.83;;
42168;SDS011;27838;43.858;25.974;2024-03-08T12:27:52;39.05;;;20.98;;
42168;SDS011;27838;43.858;25.974;2024-03-08T12:30:22;40.35;;;20.60;;
42168;SDS011;27838;43.858;25.974;2024-03-08T12:32:55;50.38;;;20.17;;
42168;SDS011;27838;43.858;25.974;2024-03-08T12:35:23;49.08;;;22.65;;
42168;SDS011;27838;43.858;25.974;2024-03-08T12:37:58;40.38;;;21.27;;
42168;SDS011;27838;43.858;25.974;2024-03-08T12:40:29;45.67;;;21.95;;
42168;SDS011;27838;43.858;25.974;2024-03-08T12:42:57;43.17;;;21.77;;
42168;SDS011;27838;43.858;25.974;2024-03-08T12:45:25;36.90;;;19.88;;
42168;SDS011;27838;43.858;25.974;2024-03-08T12:47:52;40.95;;;19.90;;
42168;SDS011;27838;43.858;25.974;2024-03-08T12:50:19;37.38;;;20.05;;
42168;SDS011;27838;43.858;25.974;2024-03-08T12:52:49;36.50;;;20.88;;
42168;SDS011;27838;43.858;25.974;2024-03-08T12:55:19;39.40;;;19.35;;
42168;SDS011;27838;43.858;25.974;2024-03-08T12:57:46;40.65;;;21.33;;
42168;SDS011;27838;43.858;25.974;2024-03-08T13:00:14;39.38;;;20.08;;
42168;SDS011;27838;43.858;25.974;2024-03-08T13:02:47;34.05;;;19.90;;
42168;SDS011;27838;43.858;25.974;2024-03-08T13:05:14;40.63;;;21.00;;
42168;SDS011;27838;43.858;25.974;2024-03-08T13:07:41;43.90;;;21.30;;
42168;SDS011;27838;43.858;25.974;2024-03-08T13:10:11;42.33;;;20.65;;
42168;SDS011;27838;43.858;25.974;2024-03-08T13:12:44;37.78;;;20.52;;
42168;SDS011;27838;43.858;25.974;2024-03-08T13:15:11;36.05;;;20.67;;
42168;SDS011;27838;43.858;25.974;2024-03-08T13:17:41;49.05;;;24.50;;
42168;SDS011;27838;43.858;25.974;2024-03-08T13:20:09;45.45;;;21.85;;
42168;SDS011;27838;43.858;25.974;2024-03-08T13:22:41;36.25;;;20.38;;
42168;SDS011;27838;43.858;25.974;2024-03-08T13:25:08;44.42;;;20.27;;
42168;SDS011;27838;43.858;25.974;2024-03-08T13:27:38;51.08;;;22.40;;
42168;SDS011;27838;43.858;25.974;2024-03-08T13:30:07;42.55;;;20.48;;
42168;SDS011;27838;43.858;25.974;2024-03-08T13:32:37;39.28;;;20.08;;
42168;SDS011;27838;43.858;25.974;2024-03-08T13:35:05;37.92;;;20.33;;
42168;SDS011;27838;43.858;25.974;2024-03-08T13:37:37;37.20;;;20.70;;
42168;SDS011;27838;43.858;25.974;2024-03-08T13:40:08;40.55;;;20.23;;
42168;SDS011;27838;43.858;25.974;2024-03-08T13:42:38;41.53;;;20.30;;
42168;SDS011;27838;43.858;25.974;2024-03-08T13:45:07;41.30;;;20.40;;
42168;SDS011;27838;43.858;25.974;2024-03-08T13:47:41;53.60;;;23.15;;
42168;SDS011;27838;43.858;25.974;2024-03-08T13:50:08;37.30;;;21.00;;
42168;SDS011;27838;43.858;25.974;2024-03-08T13:52:37;35.70;;;20.52;;
42168;SDS011;27838;43.858;25.974;2024-03-08T13:55:04;49.53;;;24.42;;
42168;SDS011;27838;43.858;25.974;2024-03-08T13:57:31;158.95;;;55.58;;
42168;SDS011;27838;43.858;25.974;2024-03-08T13:59:59;166.48;;;59.78;;
42168;SDS011;27838;43.858;25.974;2024-03-08T14:02:25;52.70;;;23.60;;
42168;SDS011;27838;43.858;25.974;2024-03-08T14:04:53;45.60;;;20.70;;
42168;SDS011;27838;43.858;25.974;2024-03-08T14:07:20;46.80;;;20.85;;
42168;SDS011;27838;43.858;25.974;2024-03-08T14:09:48;35.67;;;19.65;;
42168;SDS011;27838;43.858;25.974;2024-03-08T14:12:17;45.25;;;20.42;;
42168;SDS011;27838;43.858;25.974;2024-03-08T14:14:45;51.75;;;21.90;;
42168;SDS011;27838;43.858;25.974;2024-03-08T14:17:11;41.58;;;20.10;;
42168;SDS011;27838;43.858;25.974;2024-03-08T14:19:42;43.88;;;23.25;;
42168;SDS011;27838;43.858;25.974;2024-03-08T14:22:09;38.47;;;22.15;;
42168;SDS011;27838;43.858;25.974;2024-03-08T14:24:39;39.78;;;22.02;;
42168;SDS011;27838;43.858;25.974;2024-03-08T14:27:07;52.13;;;23.75;;